createdAt,value
2019-04-03T00:01:13.788Z,99.90
2019-04-03T00:03:42.343Z,99.90
2019-04-03T00:06:10.886Z,99.90
2019-04-03T00:08:39.474Z,99.90
2019-04-03T00:11:09.469Z,99.90
2019-04-03T00:13:41.262Z,99.90
2019-04-03T00:16:08.840Z,99.90
2019-04-03T00:18:37.401Z,99.90
2019-04-03T00:21:06.103Z,99.90
2019-04-03T00:23:34.644Z,99.90
2019-04-03T00:26:03.204Z,99.90
2019-04-03T00:28:31.688Z,99.90
2019-04-03T00:31:00.276Z,99.90
2019-04-03T00:33:28.897Z,99.90
2019-04-03T00:35:57.829Z,99.90
2019-04-03T00:38:26.413Z,99.90
2019-04-03T00:40:55.042Z,99.90
2019-04-03T00:43:24.746Z,99.90
2019-04-03T00:45:54.682Z,99.90
2019-04-03T00:48:25.829Z,99.90
2019-04-03T00:50:56.386Z,99.90
2019-04-03T00:53:24.326Z,99.90
2019-04-03T00:55:52.836Z,99.90
2019-04-03T00:58:42.213Z,99.90
2019-04-03T01:01:12.406Z,99.90
2019-04-03T01:03:41.773Z,99.90
2019-04-03T01:06:10.498Z,99.90
2019-04-03T01:08:39.299Z,99.90
2019-04-03T01:11:08.104Z,99.90
2019-04-03T01:13:36.704Z,99.90
2019-04-03T01:16:05.953Z,99.90
2019-04-03T01:18:35.368Z,99.90
2019-04-03T01:21:06.082Z,99.90
2019-04-03T01:23:37.053Z,99.90
2019-04-03T01:26:05.477Z,99.90
2019-04-03T01:28:34.121Z,99.90
2019-04-03T01:31:03.306Z,99.90
2019-04-03T01:33:31.980Z,99.90
2019-04-03T01:36:00.543Z,99.90
2019-04-03T01:38:29.109Z,99.90
2019-04-03T01:40:57.674Z,99.90
2019-04-03T01:43:26.236Z,99.90
2019-04-03T01:45:56.615Z,99.90
2019-04-03T01:48:24.992Z,99.90
2019-04-03T01:50:53.481Z,99.90
2019-04-03T01:53:22.390Z,99.90
2019-04-03T01:55:50.960Z,99.90
2019-04-03T01:58:19.560Z,99.90
2019-04-03T02:00:48.113Z,99.90
2019-04-03T02:03:16.727Z,99.90
2019-04-03T02:05:45.279Z,99.90
2019-04-03T02:08:14.731Z,99.90
2019-04-03T02:10:43.629Z,99.90
2019-04-03T02:13:12.198Z,99.90
2019-04-03T02:15:40.781Z,99.90
2019-04-03T02:18:09.354Z,99.90
2019-04-03T02:20:38.239Z,99.90
2019-04-03T02:23:06.838Z,99.90
2019-04-03T02:25:35.391Z,99.90
2019-04-03T02:28:04.573Z,99.90
2019-04-03T02:30:33.210Z,99.90
2019-04-03T02:33:01.789Z,99.90
2019-04-03T02:35:30.543Z,99.90
2019-04-03T02:37:59.197Z,99.90
2019-04-03T02:40:31.334Z,99.90
2019-04-03T02:42:58.072Z,99.90
2019-04-03T02:45:26.684Z,99.90
2019-04-03T02:47:55.427Z,99.90
2019-04-03T02:50:25.431Z,99.90
2019-04-03T02:52:58.134Z,99.90
2019-04-03T02:55:25.009Z,99.90
2019-04-03T02:57:53.619Z,99.90
2019-04-03T03:00:22.329Z,99.90
2019-04-03T03:02:50.903Z,99.90
2019-04-03T03:05:20.221Z,99.90
2019-04-03T03:07:48.945Z,99.90
2019-04-03T03:10:19.340Z,99.90
2019-04-03T03:12:48.520Z,99.90
2019-04-03T03:15:17.187Z,99.90
2019-04-03T03:17:46.414Z,99.90
2019-04-03T03:20:18.113Z,99.90
2019-04-03T03:22:49.993Z,99.90
2019-04-03T03:25:17.843Z,99.90
2019-04-03T03:27:47.775Z,99.90
2019-04-03T03:30:36.016Z,99.90
2019-04-03T03:32:47.185Z,99.90
2019-04-03T03:35:22.934Z,99.90
2019-04-03T03:37:46.772Z,99.90
2019-04-03T03:40:16.519Z,99.90
2019-04-03T03:42:46.166Z,99.90
2019-04-03T03:45:18.402Z,99.90
2019-04-03T03:47:46.629Z,99.90
2019-04-03T03:50:22.241Z,99.90
2019-04-03T03:52:48.628Z,99.90
2019-04-03T03:55:18.405Z,99.90
2019-04-03T03:57:47.881Z,99.90
2019-04-03T04:00:16.575Z,99.90
2019-04-03T04:02:45.342Z,99.90
2019-04-03T04:05:14.299Z,99.90
2019-04-03T04:07:43.157Z,99.90
2019-04-03T04:10:12.637Z,99.90
2019-04-03T04:12:42.525Z,99.90
2019-04-03T04:15:11.452Z,99.90
2019-04-03T04:17:40.379Z,99.90
2019-04-03T04:20:09.535Z,99.90
2019-04-03T04:22:38.488Z,99.90
2019-04-03T04:25:07.591Z,99.90
2019-04-03T04:27:38.575Z,99.90
2019-04-03T04:30:07.250Z,99.90
2019-04-03T04:32:36.605Z,99.90
2019-04-03T04:35:07.277Z,99.90
2019-04-03T04:37:40.009Z,99.90
2019-04-03T04:40:07.915Z,99.90
2019-04-03T04:42:36.720Z,99.90
2019-04-03T04:45:06.599Z,99.90
2019-04-03T04:47:35.513Z,99.90
2019-04-03T04:50:05.550Z,99.90
2019-04-03T04:52:34.310Z,99.90
2019-04-03T04:55:03.170Z,99.90
2019-04-03T04:57:31.739Z,99.90
2019-04-03T05:00:00.326Z,99.90
2019-04-03T05:02:29.000Z,99.90
2019-04-03T05:04:57.568Z,99.90
2019-04-03T05:07:26.128Z,99.90
2019-04-03T05:09:54.741Z,99.90
2019-04-03T05:12:23.287Z,99.90
2019-04-03T05:14:51.862Z,99.90
2019-04-03T05:17:20.746Z,99.90
2019-04-03T05:19:49.612Z,99.90
2019-04-03T05:22:18.182Z,99.90
2019-04-03T05:24:46.804Z,99.90
2019-04-03T05:27:15.442Z,99.90
2019-04-03T05:29:44.089Z,99.90
2019-04-03T05:32:13.063Z,99.90
2019-04-03T05:34:43.650Z,99.90
2019-04-03T05:37:12.503Z,99.90
2019-04-03T05:39:41.411Z,99.90
2019-04-03T05:42:10.378Z,99.90
2019-04-03T05:44:39.014Z,99.90
2019-04-03T05:47:08.462Z,99.90
2019-04-03T05:49:37.408Z,99.90
2019-04-03T05:52:06.053Z,99.90
2019-04-03T05:54:34.761Z,99.90
2019-04-03T05:57:03.338Z,99.90
2019-04-03T05:59:33.677Z,99.90
2019-04-03T06:02:13.834Z,99.90
2019-04-03T06:04:32.548Z,99.90
2019-04-03T06:07:01.282Z,99.90
2019-04-03T06:09:29.976Z,99.90
2019-04-03T06:11:58.548Z,99.90
2019-04-03T06:14:27.497Z,99.90
2019-04-03T06:16:56.725Z,99.90
2019-04-03T06:19:25.370Z,99.90
2019-04-03T06:21:53.949Z,99.90
2019-04-03T06:24:24.449Z,99.90
2019-04-03T06:26:52.776Z,99.90
2019-04-03T06:29:21.358Z,99.90
2019-04-03T06:31:49.994Z,99.90
2019-04-03T06:34:18.658Z,99.90
2019-04-03T06:36:49.731Z,99.90
2019-04-03T06:39:17.983Z,99.90
2019-04-03T06:41:47.826Z,99.90
2019-04-03T06:44:16.380Z,99.90
2019-04-03T06:46:45.536Z,99.90
2019-04-03T06:49:14.358Z,99.90
2019-04-03T06:51:43.268Z,99.90
2019-04-03T06:54:11.934Z,99.90
2019-04-03T06:56:41.255Z,99.90
2019-04-03T06:59:09.881Z,99.90
2019-04-03T07:01:38.473Z,99.90
2019-04-03T07:04:07.267Z,99.90
2019-04-03T07:06:35.917Z,99.90
2019-04-03T07:09:07.026Z,99.90
2019-04-03T07:11:35.745Z,99.90
2019-04-03T07:14:04.673Z,99.90
2019-04-03T07:16:33.509Z,99.90
2019-04-03T07:19:02.092Z,99.90
2019-04-03T07:21:30.743Z,99.90
2019-04-03T07:24:00.928Z,99.90
2019-04-03T07:26:29.956Z,99.90
2019-04-03T07:28:58.552Z,99.90
2019-04-03T07:31:27.486Z,99.90
2019-04-03T07:33:58.428Z,99.90
2019-04-03T07:36:26.323Z,99.90
2019-04-03T07:38:57.681Z,99.90
2019-04-03T07:41:25.122Z,99.90
2019-04-03T07:43:53.729Z,99.90
2019-04-03T07:46:22.383Z,99.90
2019-04-03T07:48:50.941Z,99.90
2019-04-03T07:51:19.605Z,99.90
2019-04-03T07:53:50.242Z,99.90
2019-04-03T07:56:18.396Z,99.90
2019-04-03T07:58:46.979Z,99.90
2019-04-03T08:01:18.427Z,99.90
2019-04-03T08:03:46.302Z,99.90
2019-04-03T08:06:14.983Z,99.90
2019-04-03T08:08:43.535Z,99.90
2019-04-03T08:11:14.397Z,99.90
2019-04-03T08:13:42.606Z,99.90
2019-04-03T08:16:11.211Z,99.90
2019-04-03T08:18:39.811Z,99.90
2019-04-03T08:21:08.368Z,99.90
2019-04-03T08:23:37.643Z,99.90
2019-04-03T08:26:06.319Z,99.90
2019-04-03T08:28:34.968Z,99.90
2019-04-03T08:31:03.547Z,99.90
2019-04-03T08:33:33.069Z,99.90
2019-04-03T08:36:02.211Z,99.90
2019-04-03T08:38:30.892Z,99.90
2019-04-03T08:40:59.487Z,99.90
2019-04-03T08:43:29.608Z,99.90
2019-04-03T08:45:58.313Z,99.90
2019-04-03T08:48:26.890Z,99.90
2019-04-03T08:50:57.802Z,99.90
2019-04-03T08:53:25.719Z,99.90
2019-04-03T08:55:56.518Z,99.70
2019-04-03T08:58:25.962Z,99.10
2019-04-03T09:00:54.932Z,97.80
2019-04-03T09:03:23.738Z,99.00
2019-04-03T09:05:55.669Z,99.50
2019-04-03T09:08:22.990Z,99.30
2019-04-03T09:10:51.577Z,98.40
2019-04-03T09:13:22.894Z,97.60
2019-04-03T09:15:50.359Z,99.10
2019-04-03T09:18:18.950Z,97.20
2019-04-03T09:20:47.668Z,96.70
2019-04-03T09:23:16.250Z,97.10
2019-04-03T09:25:45.219Z,97.20
2019-04-03T09:28:13.775Z,97.90
2019-04-03T09:30:42.446Z,97.80
2019-04-03T09:33:11.243Z,97.40
2019-04-03T09:35:42.671Z,95.90
2019-04-03T09:38:10.321Z,96.50
2019-04-03T09:40:39.362Z,97.00
2019-04-03T09:43:07.992Z,97.00
2019-04-03T09:45:36.644Z,95.80
2019-04-03T09:48:06.114Z,95.00
2019-04-03T09:50:35.026Z,94.40
2019-04-03T09:53:03.951Z,94.10
2019-04-03T09:55:35.856Z,94.60
2019-04-03T09:58:04.031Z,94.30
2019-04-03T10:00:32.977Z,94.50
2019-04-03T10:03:01.878Z,91.20
2019-04-03T10:05:30.738Z,91.30
2019-04-03T10:07:59.345Z,90.80
2019-04-03T10:10:28.123Z,91.40
2019-04-03T10:12:56.724Z,90.20
2019-04-03T10:15:25.321Z,92.40
2019-04-03T10:17:53.902Z,91.30
2019-04-03T10:20:23.049Z,91.10
2019-04-03T10:22:51.867Z,91.80
2019-04-03T10:25:20.587Z,91.30
2019-04-03T10:27:49.190Z,91.30
2019-04-03T10:30:20.321Z,90.00
2019-04-03T10:32:48.448Z,91.30
2019-04-03T10:35:17.395Z,91.90
2019-04-03T10:37:47.044Z,91.80
2019-04-03T10:40:16.342Z,92.60
2019-04-03T10:42:44.988Z,91.10
2019-04-03T10:45:14.225Z,91.30
2019-04-03T10:47:44.324Z,91.30
2019-04-03T10:50:14.023Z,91.70
2019-04-03T10:52:44.265Z,92.50
2019-04-03T10:55:14.403Z,91.40
2019-04-03T10:57:43.112Z,87.90
2019-04-03T11:00:13.407Z,91.60
2019-04-03T11:02:42.016Z,91.10
2019-04-03T11:05:11.112Z,90.30
2019-04-03T11:07:40.179Z,92.60
2019-04-03T11:10:09.914Z,92.50
2019-04-03T11:12:38.667Z,87.80
2019-04-03T11:15:10.819Z,88.90
2019-04-03T11:17:38.771Z,87.80
2019-04-03T11:20:09.702Z,86.10
2019-04-03T11:22:41.605Z,85.50
2019-04-03T11:25:09.689Z,81.90
2019-04-03T11:30:16.975Z,83.80
2019-04-03T11:30:54.190Z,86.10
2019-04-03T11:32:44.273Z,84.30
2019-04-03T11:35:13.411Z,84.20
2019-04-03T11:37:42.013Z,80.80
2019-04-03T11:40:11.734Z,84.10
2019-04-03T11:42:40.385Z,80.20
2019-04-03T11:45:10.658Z,79.40
2019-04-03T11:47:39.370Z,79.10
2019-04-03T11:50:09.270Z,78.80
2019-04-03T11:52:37.846Z,81.90
2019-04-03T11:55:09.958Z,81.70
2019-04-03T11:57:37.992Z,77.70
2019-04-03T12:00:13.368Z,74.70
2019-04-03T12:02:44.307Z,76.10
2019-04-03T12:05:14.774Z,76.40
2019-04-03T12:07:43.330Z,75.00
2019-04-03T12:10:12.508Z,77.90
2019-04-03T12:12:41.988Z,76.20
2019-04-03T12:15:11.928Z,74.20
2019-04-03T12:17:41.478Z,75.70
2019-04-03T12:20:10.888Z,74.00
2019-04-03T12:22:39.581Z,73.60
2019-04-03T12:25:08.741Z,71.90
2019-04-03T12:27:37.327Z,71.00
2019-04-03T12:30:10.409Z,72.50
2019-04-03T12:32:43.592Z,72.50
2019-04-03T12:35:10.897Z,74.40
2019-04-03T12:37:39.693Z,73.00
2019-04-03T12:40:09.325Z,72.60
2019-04-03T12:42:38.201Z,69.70
2019-04-03T12:45:08.734Z,71.40
2019-04-03T12:47:37.526Z,69.10
2019-04-03T12:50:07.767Z,71.50
2019-04-03T12:52:36.646Z,69.30
2019-04-03T12:55:07.071Z,70.90
2019-04-03T12:57:38.953Z,70.50
2019-04-03T13:00:13.355Z,67.80
2019-04-03T13:02:42.456Z,67.70
2019-04-03T13:05:12.237Z,69.10
2019-04-03T13:07:40.770Z,66.90
2019-04-03T13:10:11.055Z,66.10
2019-04-03T13:12:39.588Z,67.50
2019-04-03T13:15:11.486Z,70.90
2019-04-03T13:17:43.445Z,69.60
2019-04-03T13:20:11.426Z,69.60
2019-04-03T13:22:42.087Z,69.60
2019-04-03T13:25:10.732Z,68.60
2019-04-03T13:27:39.782Z,70.50
2019-04-03T13:30:12.334Z,68.90
2019-04-03T13:32:40.511Z,69.90
2019-04-03T13:35:09.606Z,70.10
2019-04-03T13:37:38.255Z,70.60
2019-04-03T13:40:07.876Z,68.70
2019-04-03T13:42:36.580Z,70.00
2019-04-03T13:45:09.369Z,69.20
2019-04-03T13:47:41.072Z,69.40
2019-04-03T13:50:09.774Z,68.20
2019-04-03T13:52:42.334Z,69.10
2019-04-03T13:55:09.708Z,69.20
2019-04-03T13:57:38.624Z,69.00
2019-04-03T14:00:18.742Z,68.30
2019-04-03T14:02:40.129Z,70.00
2019-04-03T14:05:09.690Z,69.50
2019-04-03T14:07:41.542Z,67.50
2019-04-03T14:10:09.862Z,69.00
2019-04-03T14:12:43.215Z,68.50
2019-04-03T14:15:09.697Z,68.20
2019-04-03T14:17:38.695Z,68.20
2019-04-03T14:20:09.852Z,69.10
2019-04-03T14:22:38.580Z,68.60
2019-04-03T14:25:17.902Z,65.30
2019-04-03T14:27:37.814Z,66.20
2019-04-03T14:30:11.578Z,65.80
2019-04-03T14:32:38.695Z,65.00
2019-04-03T14:35:36.661Z,66.60
2019-04-03T14:37:39.050Z,67.90
2019-04-03T14:40:10.994Z,68.30
2019-04-03T14:42:38.546Z,65.70
2019-04-03T14:45:08.048Z,66.30
2019-04-03T14:47:36.775Z,68.80
2019-04-03T14:50:07.341Z,66.20
2019-04-03T14:52:36.370Z,66.70
2019-04-03T14:55:23.441Z,65.70
2019-04-03T14:57:37.527Z,65.30
2019-04-03T15:00:24.945Z,67.80
2019-04-03T15:02:41.438Z,66.70
2019-04-03T15:05:10.814Z,67.20
2019-04-03T15:07:40.375Z,69.10
2019-04-03T15:10:09.679Z,69.20
2019-04-03T15:12:39.865Z,67.30
2019-04-03T15:15:09.738Z,68.50
2019-04-03T15:17:38.918Z,70.30
2019-04-03T15:20:09.618Z,70.00
2019-04-03T15:22:39.452Z,67.30
2019-04-03T15:25:08.818Z,69.30
2019-04-03T15:27:38.100Z,70.50
2019-04-03T15:30:10.913Z,71.30
2019-04-03T15:32:39.137Z,72.70
2019-04-03T15:35:08.110Z,71.10
2019-04-03T15:37:40.100Z,73.10
2019-04-03T15:40:07.178Z,71.00
2019-04-03T15:42:38.902Z,71.10
2019-04-03T15:45:09.042Z,68.50
2019-04-03T15:47:41.820Z,70.80
2019-04-03T15:50:09.011Z,70.90
2019-04-03T15:52:37.565Z,71.30
2019-04-03T15:55:10.653Z,72.40
2019-04-03T15:57:40.656Z,73.60
2019-04-03T16:00:12.531Z,70.90
2019-04-03T16:02:44.458Z,72.50
2019-04-03T16:05:12.209Z,73.20
2019-04-03T16:07:42.429Z,71.10
2019-04-03T16:10:11.805Z,71.60
2019-04-03T16:12:42.822Z,73.10
2019-04-03T16:15:12.019Z,71.50
2019-04-03T16:17:40.613Z,73.50
2019-04-03T16:20:10.440Z,72.80
2019-04-03T16:22:39.156Z,74.50
2019-04-03T16:25:08.154Z,75.30
2019-04-03T16:27:37.811Z,74.50
2019-04-03T16:30:08.856Z,77.30
2019-04-03T16:32:37.858Z,77.90
2019-04-03T16:35:08.227Z,78.90
2019-04-03T16:37:37.232Z,78.70
2019-04-03T16:40:10.106Z,79.60
2019-04-03T16:42:38.793Z,79.80
2019-04-03T16:45:11.301Z,80.50
2019-04-03T16:47:40.200Z,81.80
2019-04-03T16:50:10.038Z,80.60
2019-04-03T16:52:38.793Z,83.70
2019-04-03T16:55:09.358Z,82.70
2019-04-03T16:57:38.332Z,82.70
2019-04-03T17:00:10.063Z,84.80
2019-04-03T17:02:39.038Z,84.90
2019-04-03T17:05:13.378Z,85.80
2019-04-03T17:07:41.962Z,88.70
2019-04-03T17:10:10.955Z,90.40
2019-04-03T17:12:39.762Z,90.60
2019-04-03T17:15:09.890Z,91.90
2019-04-03T17:17:39.197Z,92.00
2019-04-03T17:20:09.245Z,92.80
2019-04-03T17:22:40.848Z,93.90
2019-04-03T17:25:10.658Z,94.00
2019-04-03T17:27:39.384Z,94.20
2019-04-03T17:30:10.174Z,96.20
2019-04-03T17:32:39.894Z,96.80
2019-04-03T17:35:09.097Z,98.90
2019-04-03T17:37:38.170Z,99.90
2019-04-03T17:40:09.763Z,99.90
2019-04-03T17:42:39.296Z,99.80
2019-04-03T17:45:09.397Z,99.90
2019-04-03T17:47:38.057Z,99.90
2019-04-03T17:50:08.423Z,99.90
2019-04-03T17:52:37.239Z,99.90
2019-04-03T17:55:10.642Z,99.90
2019-04-03T17:57:39.595Z,99.90
2019-04-03T18:00:14.069Z,99.90
2019-04-03T18:02:43.051Z,99.90
2019-04-03T18:05:12.516Z,99.90
2019-04-03T18:07:41.135Z,99.90
2019-04-03T18:10:12.739Z,99.90
2019-04-03T18:12:40.479Z,99.90
2019-04-03T18:15:10.606Z,99.90
2019-04-03T18:17:39.213Z,99.90
2019-04-03T18:20:12.442Z,99.90
2019-04-03T18:22:40.878Z,99.90
2019-04-03T18:25:11.095Z,99.90
2019-04-03T18:27:40.191Z,99.90
2019-04-03T18:30:11.783Z,99.90
2019-04-03T18:32:41.456Z,99.90
2019-04-03T18:35:11.474Z,99.90
2019-04-03T18:37:41.303Z,99.70
2019-04-03T18:40:14.281Z,99.90
2019-04-03T18:42:42.089Z,98.70
2019-04-03T18:45:24.061Z,99.90
2019-04-03T18:47:45.600Z,99.20
2019-04-03T18:50:12.997Z,99.90
2019-04-03T18:52:41.890Z,99.70
2019-04-03T18:55:13.981Z,99.40
2019-04-03T18:57:41.341Z,99.30
2019-04-03T19:00:10.620Z,99.90
2019-04-03T19:02:39.500Z,99.90
2019-04-03T19:05:10.928Z,99.90
2019-04-03T19:07:39.359Z,99.90
2019-04-03T19:10:08.728Z,99.90
2019-04-03T19:12:37.521Z,99.90
2019-04-03T19:15:07.589Z,99.90
2019-04-03T19:17:36.514Z,99.90
2019-04-03T19:20:10.666Z,99.90
2019-04-03T19:22:38.098Z,99.90
2019-04-03T19:25:07.852Z,99.90
2019-04-03T19:27:36.591Z,99.90
2019-04-03T19:30:09.936Z,99.90
2019-04-03T19:32:38.973Z,99.90
2019-04-03T19:35:09.350Z,99.90
2019-04-03T19:37:38.260Z,99.90
2019-04-03T19:40:09.829Z,99.90
2019-04-03T19:42:38.502Z,99.90
2019-04-03T19:45:08.231Z,99.90
2019-04-03T19:47:36.810Z,99.90
2019-04-03T19:50:09.411Z,99.90
2019-04-03T19:52:41.587Z,99.90
2019-04-03T19:55:09.591Z,99.90
2019-04-03T19:57:38.161Z,99.90
2019-04-03T20:00:09.115Z,99.90
2019-04-03T20:02:38.276Z,99.90
2019-04-03T20:05:07.751Z,99.90
2019-04-03T20:07:36.430Z,99.90
2019-04-03T20:10:09.673Z,99.90
2019-04-03T20:12:38.478Z,99.90
2019-04-03T20:15:11.600Z,99.90
2019-04-03T20:17:40.192Z,99.90
2019-04-03T20:20:09.285Z,99.90
2019-04-03T20:22:42.418Z,99.90
2019-04-03T20:25:10.765Z,99.90
2019-04-03T20:27:39.442Z,99.90
2019-04-03T20:30:09.058Z,99.90
2019-04-03T20:32:39.971Z,99.90
2019-04-03T20:35:08.478Z,99.90
2019-04-03T20:37:37.089Z,99.90
2019-04-03T20:40:07.550Z,99.90
2019-04-03T20:42:36.321Z,99.90
2019-04-03T20:45:08.354Z,99.90
2019-04-03T20:47:37.083Z,99.90
2019-04-03T20:50:09.162Z,99.90
2019-04-03T20:52:37.728Z,99.90
2019-04-03T20:55:08.747Z,99.90
2019-04-03T20:57:37.423Z,99.90
2019-04-03T21:00:14.123Z,99.90
2019-04-03T21:02:42.870Z,99.90
2019-04-03T21:05:11.790Z,99.90
2019-04-03T21:07:40.360Z,99.90
2019-04-03T21:10:09.296Z,99.90
2019-04-03T21:12:37.922Z,99.90
2019-04-03T21:15:09.027Z,99.90
2019-04-03T21:17:37.931Z,99.90
2019-04-03T21:20:07.309Z,99.90
2019-04-03T21:22:35.967Z,99.90
2019-04-03T21:25:06.223Z,99.90
2019-04-03T21:27:34.746Z,99.90
2019-04-03T21:30:04.758Z,99.90
2019-04-03T21:32:33.383Z,99.90
2019-04-03T21:35:04.045Z,99.90
2019-04-03T21:37:32.497Z,99.90
2019-04-03T21:40:04.729Z,99.90
2019-04-03T21:42:31.603Z,99.90
2019-04-03T21:45:02.561Z,99.90
2019-04-03T21:47:30.447Z,99.90
2019-04-03T21:49:59.045Z,99.90
2019-04-03T21:52:27.618Z,99.90
2019-04-03T21:54:58.414Z,99.90
2019-04-03T21:57:26.843Z,99.90
2019-04-03T21:59:55.423Z,99.90
2019-04-03T22:02:24.093Z,99.90
2019-04-03T22:04:53.879Z,99.90
2019-04-03T22:07:23.137Z,99.90
2019-04-03T22:09:51.716Z,99.90
2019-04-03T22:12:20.309Z,99.90
2019-04-03T22:14:48.886Z,99.90
2019-04-03T22:17:17.473Z,99.90
2019-04-03T22:19:46.050Z,99.90
2019-04-03T22:22:14.637Z,99.90
2019-04-03T22:24:43.229Z,99.90
2019-04-03T22:27:13.558Z,99.90
2019-04-03T22:29:42.144Z,99.90
2019-04-03T22:32:10.785Z,99.90
2019-04-03T22:34:39.386Z,99.90
2019-04-03T22:37:07.966Z,99.90
2019-04-03T22:39:37.008Z,99.90
2019-04-03T22:42:06.811Z,99.90
2019-04-03T22:44:35.710Z,99.90
2019-04-03T22:47:04.613Z,99.90
2019-04-03T22:49:34.023Z,99.90
2019-04-03T22:52:03.162Z,99.90
2019-04-03T22:54:31.849Z,99.90
2019-04-03T22:57:00.507Z,99.90
2019-04-03T22:59:29.453Z,99.90
2019-04-03T23:02:00.766Z,99.90
2019-04-03T23:04:28.786Z,99.90
2019-04-03T23:06:57.362Z,99.90
2019-04-03T23:09:25.953Z,99.90
2019-04-03T23:11:54.562Z,99.90
2019-04-03T23:14:23.174Z,99.90
2019-04-03T23:16:51.754Z,99.90
2019-04-03T23:19:20.335Z,99.90
2019-04-03T23:21:48.926Z,99.90
2019-04-03T23:24:17.497Z,99.90
2019-04-03T23:26:46.193Z,99.90
2019-04-03T23:29:15.121Z,99.90
2019-04-03T23:31:44.885Z,99.90
2019-04-03T23:34:14.243Z,99.90
2019-04-03T23:36:42.833Z,99.90
2019-04-03T23:39:11.402Z,99.90
2019-04-03T23:41:40.078Z,99.90
2019-04-03T23:44:10.743Z,99.90
2019-04-03T23:46:39.293Z,99.90
2019-04-03T23:49:07.890Z,99.90
2019-04-03T23:51:36.484Z,99.90
2019-04-03T23:54:05.117Z,99.90
2019-04-03T23:56:33.705Z,99.90
2019-04-03T23:59:02.345Z,99.90
